EWG7060 EDDH-EDDL
Flight info
| Callsign | EWG7060 |
|---|---|
| Flight time | 0h 49m |
| Altitude | 32000 |
| Route | HABFU1C HABFU Y348 MAWEQ Z718 OSNAD M170 HMM T851 HALME HALME1A |
| Aircraft | A319/M-SDE3FGHIRWY/LB1 |
Departure
| Time | 2026-05-07 13:36 |
|---|---|
| Airport | Hamburg Helmut Schmidt Airport (EDDH) |
Arrival
| Time | 2026-05-07 14:25 |
|---|---|
| Airport | Düsseldorf Airport (EDDL) |
| Time | Latitude | Longitude | Altitude | Speed | Heading |
|---|---|---|---|---|---|
| 2026-05-07 13:12 | 53.63113 | 10.00372 | 48 ft | 0 kts | 86° |
| 2026-05-07 13:26 | 53.63111 | 10.00338 | 45 ft | 4 kts | 86° |
| 2026-05-07 13:26 | 53.63110 | 10.00300 | 46 ft | 2 kts | 86° |
| 2026-05-07 13:27 | 53.63113 | 10.00265 | 45 ft | 4 kts | 148° |
| 2026-05-07 13:27 | 53.63125 | 10.00257 | 46 ft | 0 kts | 176° |
| 2026-05-07 13:27 | 53.63106 | 10.00259 | 47 ft | 1 kts | 176° |
| 2026-05-07 13:29 | 53.63104 | 10.00260 | 47 ft | 2 kts | 176° |
| 2026-05-07 13:30 | 53.63080 | 10.00262 | 51 ft | 5 kts | 180° |
| 2026-05-07 13:30 | 53.63031 | 10.00213 | 51 ft | 10 kts | 213° |
| 2026-05-07 13:30 | 53.62961 | 10.00142 | 49 ft | 13 kts | 212° |
| 2026-05-07 13:30 | 53.62879 | 10.00055 | 48 ft | 14 kts | 217° |
| 2026-05-07 13:31 | 53.62818 | 9.99979 | 51 ft | 4 kts | 212° |
| 2026-05-07 13:31 | 53.62815 | 9.99975 | 51 ft | 2 kts | 212° |
| 2026-05-07 13:31 | 53.62795 | 9.99954 | 50 ft | 5 kts | 212° |
| 2026-05-07 13:31 | 53.62733 | 9.99894 | 49 ft | 14 kts | 208° |
| 2026-05-07 13:32 | 53.62646 | 9.99798 | 48 ft | 16 kts | 230° |
| 2026-05-07 13:32 | 53.62624 | 9.99615 | 50 ft | 17 kts | 261° |
| 2026-05-07 13:32 | 53.62598 | 9.99405 | 51 ft | 20 kts | 258° |
| 2026-05-07 13:32 | 53.62571 | 9.99165 | 51 ft | 22 kts | 259° |
| 2026-05-07 13:33 | 53.62542 | 9.98899 | 51 ft | 24 kts | 259° |
| 2026-05-07 13:33 | 53.62514 | 9.98660 | 51 ft | 22 kts | 260° |
| 2026-05-07 13:33 | 53.62484 | 9.98413 | 51 ft | 21 kts | 257° |
| 2026-05-07 13:33 | 53.62445 | 9.98158 | 48 ft | 24 kts | 245° |
| 2026-05-07 13:34 | 53.62383 | 9.97997 | 50 ft | 25 kts | 230° |
| 2026-05-07 13:34 | 53.62189 | 9.97600 | 51 ft | 17 kts | 235° |
| 2026-05-07 13:34 | 53.62202 | 9.97425 | 50 ft | 6 kts | 306° |
| 2026-05-07 13:35 | 53.62206 | 9.97417 | 50 ft | 0 kts | 311° |
| 2026-05-07 13:35 | 53.62214 | 9.97403 | 48 ft | 6 kts | 315° |
| 2026-05-07 13:35 | 53.62289 | 9.97335 | 49 ft | 15 kts | 2° |
| 2026-05-07 13:35 | 53.62314 | 9.97361 | 49 ft | 0 kts | 50° |
| 2026-05-07 13:36 | 53.62403 | 9.97540 | 48 ft | 54 kts | 50° |
| 2026-05-07 13:36 | 53.62786 | 9.98317 | 50 ft | 116 kts | 50° |
| 2026-05-07 13:36 | 53.63387 | 9.99531 | 364 ft | 137 kts | 50° |
| 2026-05-07 13:36 | 53.63991 | 10.00750 | 1080 ft | 136 kts | 52° |
| 2026-05-07 13:37 | 53.64612 | 10.02008 | 1673 ft | 147 kts | 51° |
| 2026-05-07 13:37 | 53.65303 | 10.03421 | 2128 ft | 163 kts | 51° |
| 2026-05-07 13:37 | 53.66076 | 10.04937 | 2626 ft | 179 kts | 50° |
| 2026-05-07 13:37 | 53.66912 | 10.06626 | 3130 ft | 194 kts | 52° |
| 2026-05-07 13:38 | 53.67815 | 10.08496 | 3628 ft | 217 kts | 50° |
| 2026-05-07 13:38 | 53.69087 | 10.09821 | 4637 ft | 220 kts | 14° |
| 2026-05-07 13:38 | 53.70596 | 10.09436 | 5687 ft | 229 kts | 338° |
| 2026-05-07 13:38 | 53.72059 | 10.07956 | 6210 ft | 259 kts | 325° |
| 2026-05-07 13:39 | 53.73295 | 10.05634 | 6930 ft | 279 kts | 306° |
| 2026-05-07 13:39 | 53.74254 | 10.02718 | 7936 ft | 286 kts | 295° |
| 2026-05-07 13:39 | 53.74693 | 9.99422 | 8977 ft | 291 kts | 274° |
| 2026-05-07 13:39 | 53.74595 | 9.96014 | 10067 ft | 291 kts | 261° |
| 2026-05-07 13:40 | 53.74068 | 9.92658 | 10769 ft | 305 kts | 249° |
| 2026-05-07 13:40 | 53.73211 | 9.89234 | 11206 ft | 324 kts | 246° |
| 2026-05-07 13:40 | 53.72317 | 9.85692 | 11973 ft | 330 kts | 247° |
| 2026-05-07 13:40 | 53.71421 | 9.82144 | 12815 ft | 334 kts | 247° |
| 2026-05-07 13:41 | 53.70502 | 9.78513 | 13676 ft | 338 kts | 247° |
| 2026-05-07 13:41 | 53.69569 | 9.74841 | 14445 ft | 341 kts | 247° |
| 2026-05-07 13:41 | 53.68626 | 9.71144 | 15186 ft | 345 kts | 247° |
| 2026-05-07 13:41 | 53.67675 | 9.67416 | 15950 ft | 347 kts | 247° |
| 2026-05-07 13:42 | 53.66715 | 9.63669 | 16729 ft | 349 kts | 246° |
| 2026-05-07 13:42 | 53.65473 | 9.60122 | 17445 ft | 354 kts | 234° |
| 2026-05-07 13:42 | 53.63781 | 9.57079 | 18169 ft | 359 kts | 221° |
| 2026-05-07 13:42 | 53.61715 | 9.54680 | 18834 ft | 364 kts | 209° |
| 2026-05-07 13:43 | 53.59474 | 9.52654 | 19511 ft | 365 kts | 210° |
| 2026-05-07 13:43 | 53.57256 | 9.50643 | 20184 ft | 368 kts | 210° |
| 2026-05-07 13:43 | 53.55000 | 9.48583 | 20833 ft | 371 kts | 209° |
| 2026-05-07 13:43 | 53.52725 | 9.46499 | 21469 ft | 374 kts | 210° |
| 2026-05-07 13:44 | 53.50432 | 9.44398 | 22118 ft | 376 kts | 210° |
| 2026-05-07 13:44 | 53.48124 | 9.42286 | 22753 ft | 379 kts | 210° |
| 2026-05-07 13:44 | 53.45795 | 9.40159 | 23373 ft | 382 kts | 209° |
| 2026-05-07 13:44 | 53.43447 | 9.38019 | 23916 ft | 385 kts | 210° |
| 2026-05-07 13:45 | 53.41078 | 9.35863 | 24424 ft | 388 kts | 209° |
| 2026-05-07 13:45 | 53.38692 | 9.33698 | 24927 ft | 391 kts | 209° |
| 2026-05-07 13:45 | 53.36319 | 9.31549 | 25386 ft | 395 kts | 209° |
| 2026-05-07 13:45 | 53.33878 | 9.29385 | 25859 ft | 398 kts | 206° |
| 2026-05-07 13:46 | 53.31268 | 9.27750 | 26333 ft | 402 kts | 197° |
| 2026-05-07 13:46 | 53.28515 | 9.26804 | 26824 ft | 406 kts | 191° |
| 2026-05-07 13:46 | 53.25722 | 9.25982 | 27282 ft | 409 kts | 191° |
| 2026-05-07 13:46 | 53.22906 | 9.25149 | 27729 ft | 413 kts | 191° |
| 2026-05-07 13:47 | 53.20072 | 9.24307 | 28206 ft | 416 kts | 191° |
| 2026-05-07 13:47 | 53.17208 | 9.23458 | 28684 ft | 418 kts | 191° |
| 2026-05-07 13:47 | 53.14331 | 9.22603 | 29132 ft | 422 kts | 191° |
| 2026-05-07 13:47 | 53.11427 | 9.21741 | 29575 ft | 425 kts | 191° |
| 2026-05-07 13:48 | 53.08531 | 9.20886 | 30014 ft | 428 kts | 190° |
| 2026-05-07 13:48 | 53.05585 | 9.20017 | 30399 ft | 431 kts | 191° |
| 2026-05-07 13:48 | 53.02607 | 9.19140 | 30755 ft | 434 kts | 190° |
| 2026-05-07 13:48 | 52.99609 | 9.18259 | 31088 ft | 438 kts | 191° |
| 2026-05-07 13:49 | 52.96610 | 9.17260 | 31409 ft | 441 kts | 196° |
| 2026-05-07 13:49 | 52.93741 | 9.15619 | 31722 ft | 443 kts | 204° |
| 2026-05-07 13:49 | 52.90982 | 9.13311 | 32009 ft | 445 kts | 209° |
| 2026-05-07 13:50 | 52.85636 | 9.08605 | 32079 ft | 421 kts | 208° |
| 2026-05-07 13:50 | 52.80536 | 9.04158 | 32082 ft | 411 kts | 208° |
| 2026-05-07 13:51 | 52.75493 | 8.99768 | 32080 ft | 409 kts | 208° |
| 2026-05-07 13:51 | 52.70449 | 8.95387 | 32081 ft | 409 kts | 208° |
| 2026-05-07 13:52 | 52.65416 | 8.91015 | 32080 ft | 410 kts | 208° |
| 2026-05-07 13:52 | 52.60392 | 8.86656 | 32081 ft | 410 kts | 208° |
| 2026-05-07 13:53 | 52.55332 | 8.82285 | 32074 ft | 410 kts | 208° |
| 2026-05-07 13:53 | 52.50274 | 8.77918 | 32072 ft | 410 kts | 208° |
| 2026-05-07 13:54 | 52.45253 | 8.73592 | 32068 ft | 410 kts | 208° |
| 2026-05-07 13:54 | 52.40196 | 8.69258 | 32067 ft | 409 kts | 208° |
| 2026-05-07 13:55 | 52.35143 | 8.64938 | 32067 ft | 409 kts | 208° |
| 2026-05-07 13:55 | 52.30198 | 8.60301 | 31914 ft | 409 kts | 218° |
| 2026-05-07 13:55 | 52.28110 | 8.57191 | 31494 ft | 405 kts | 229° |
| 2026-05-07 13:56 | 52.26439 | 8.53572 | 31034 ft | 402 kts | 239° |
| 2026-05-07 13:56 | 52.25187 | 8.49520 | 30580 ft | 398 kts | 249° |
| 2026-05-07 13:56 | 52.24175 | 8.45334 | 30124 ft | 395 kts | 248° |
| 2026-05-07 13:56 | 52.23152 | 8.41169 | 29638 ft | 392 kts | 248° |
| 2026-05-07 13:57 | 52.22135 | 8.37065 | 29200 ft | 387 kts | 248° |
| 2026-05-07 13:57 | 52.21130 | 8.33028 | 28776 ft | 383 kts | 247° |
| 2026-05-07 13:57 | 52.19946 | 8.29225 | 28365 ft | 378 kts | 238° |
| 2026-05-07 13:57 | 52.18382 | 8.25805 | 27960 ft | 375 kts | 228° |
| 2026-05-07 13:58 | 52.16587 | 8.22745 | 27574 ft | 371 kts | 226° |
| 2026-05-07 13:58 | 52.14795 | 8.19719 | 27191 ft | 368 kts | 226° |
| 2026-05-07 13:58 | 52.13024 | 8.16721 | 26818 ft | 365 kts | 226° |
| 2026-05-07 13:58 | 52.11273 | 8.13760 | 26450 ft | 361 kts | 226° |
| 2026-05-07 13:59 | 52.09566 | 8.10871 | 26090 ft | 357 kts | 226° |
| 2026-05-07 13:59 | 52.07847 | 8.07968 | 25711 ft | 354 kts | 226° |
| 2026-05-07 13:59 | 52.06145 | 8.05104 | 25337 ft | 351 kts | 226° |
| 2026-05-07 13:59 | 52.04459 | 8.02265 | 24958 ft | 347 kts | 226° |
| 2026-05-07 14:00 | 52.02788 | 7.99451 | 24565 ft | 345 kts | 226° |
| 2026-05-07 14:00 | 52.01128 | 7.96655 | 24177 ft | 342 kts | 226° |
| 2026-05-07 14:00 | 51.99480 | 7.93880 | 23790 ft | 340 kts | 226° |
| 2026-05-07 14:00 | 51.97843 | 7.91126 | 23354 ft | 338 kts | 226° |
| 2026-05-07 14:01 | 51.96215 | 7.88392 | 22959 ft | 334 kts | 226° |
| 2026-05-07 14:01 | 51.94605 | 7.85700 | 22554 ft | 331 kts | 226° |
| 2026-05-07 14:01 | 51.93025 | 7.83060 | 22158 ft | 328 kts | 226° |
| 2026-05-07 14:01 | 51.91436 | 7.80411 | 21752 ft | 325 kts | 226° |
| 2026-05-07 14:02 | 51.89863 | 7.77796 | 21357 ft | 323 kts | 226° |
| 2026-05-07 14:02 | 51.88302 | 7.75196 | 20968 ft | 321 kts | 226° |
| 2026-05-07 14:02 | 51.86757 | 7.72610 | 20578 ft | 318 kts | 228° |
| 2026-05-07 14:02 | 51.85433 | 7.69758 | 20181 ft | 316 kts | 239° |
| 2026-05-07 14:03 | 51.84433 | 7.66594 | 19804 ft | 314 kts | 245° |
| 2026-05-07 14:03 | 51.83509 | 7.63449 | 19428 ft | 313 kts | 245° |
| 2026-05-07 14:03 | 51.82573 | 7.60282 | 19039 ft | 312 kts | 245° |
| 2026-05-07 14:03 | 51.81637 | 7.57126 | 18651 ft | 311 kts | 245° |
| 2026-05-07 14:04 | 51.80701 | 7.53978 | 18261 ft | 310 kts | 245° |
| 2026-05-07 14:04 | 51.79767 | 7.50850 | 17858 ft | 308 kts | 245° |
| 2026-05-07 14:04 | 51.78840 | 7.47745 | 17459 ft | 306 kts | 245° |
| 2026-05-07 14:04 | 51.77921 | 7.44660 | 17081 ft | 303 kts | 245° |
| 2026-05-07 14:05 | 51.77006 | 7.41597 | 16699 ft | 302 kts | 245° |
| 2026-05-07 14:05 | 51.76097 | 7.38553 | 16321 ft | 300 kts | 245° |
| 2026-05-07 14:05 | 51.75188 | 7.35521 | 15949 ft | 298 kts | 245° |
| 2026-05-07 14:05 | 51.74282 | 7.32500 | 15577 ft | 297 kts | 245° |
| 2026-05-07 14:06 | 51.73381 | 7.29505 | 15191 ft | 296 kts | 245° |
| 2026-05-07 14:06 | 51.72497 | 7.26560 | 14835 ft | 295 kts | 245° |
| 2026-05-07 14:06 | 51.71559 | 7.23617 | 14466 ft | 294 kts | 238° |
| 2026-05-07 14:06 | 51.70278 | 7.21054 | 14106 ft | 294 kts | 225° |
| 2026-05-07 14:07 | 51.68635 | 7.19056 | 13843 ft | 303 kts | 211° |
| 2026-05-07 14:07 | 51.66680 | 7.17656 | 13582 ft | 310 kts | 202° |
| 2026-05-07 14:07 | 51.64657 | 7.16432 | 13331 ft | 310 kts | 201° |
| 2026-05-07 14:07 | 51.62640 | 7.15212 | 13080 ft | 309 kts | 202° |
| 2026-05-07 14:08 | 51.60631 | 7.13998 | 12832 ft | 308 kts | 202° |
| 2026-05-07 14:08 | 51.58621 | 7.12783 | 12585 ft | 307 kts | 202° |
| 2026-05-07 14:08 | 51.56646 | 7.11486 | 12339 ft | 306 kts | 208° |
| 2026-05-07 14:08 | 51.54894 | 7.09587 | 12100 ft | 303 kts | 222° |
| 2026-05-07 14:09 | 51.53493 | 7.07138 | 11862 ft | 301 kts | 234° |
| 2026-05-07 14:09 | 51.52240 | 7.04449 | 11629 ft | 300 kts | 234° |
| 2026-05-07 14:09 | 51.50986 | 7.01769 | 11392 ft | 299 kts | 234° |
| 2026-05-07 14:09 | 51.49722 | 6.99079 | 11154 ft | 300 kts | 233° |
| 2026-05-07 14:10 | 51.48452 | 6.96391 | 10917 ft | 299 kts | 233° |
| 2026-05-07 14:10 | 51.47195 | 6.93737 | 10687 ft | 298 kts | 233° |
| 2026-05-07 14:10 | 51.45947 | 6.91101 | 10442 ft | 296 kts | 233° |
| 2026-05-07 14:10 | 51.44713 | 6.88491 | 10197 ft | 291 kts | 233° |
| 2026-05-07 14:11 | 51.43501 | 6.85932 | 9975 ft | 287 kts | 233° |
| 2026-05-07 14:11 | 51.42296 | 6.83390 | 9744 ft | 285 kts | 233° |
| 2026-05-07 14:11 | 51.41100 | 6.80866 | 9513 ft | 284 kts | 233° |
| 2026-05-07 14:11 | 51.39919 | 6.78383 | 9292 ft | 283 kts | 233° |
| 2026-05-07 14:12 | 51.38729 | 6.75879 | 9065 ft | 283 kts | 233° |
| 2026-05-07 14:12 | 51.37539 | 6.73374 | 8841 ft | 282 kts | 233° |
| 2026-05-07 14:12 | 51.36352 | 6.70878 | 8623 ft | 282 kts | 233° |
| 2026-05-07 14:12 | 51.35168 | 6.68390 | 8402 ft | 280 kts | 233° |
| 2026-05-07 14:13 | 51.33989 | 6.65915 | 8185 ft | 279 kts | 233° |
| 2026-05-07 14:13 | 51.32811 | 6.63449 | 7971 ft | 278 kts | 233° |
| 2026-05-07 14:13 | 51.31636 | 6.60995 | 7753 ft | 278 kts | 233° |
| 2026-05-07 14:13 | 51.30463 | 6.58548 | 7535 ft | 277 kts | 233° |
| 2026-05-07 14:14 | 51.29293 | 6.56108 | 7315 ft | 277 kts | 233° |
| 2026-05-07 14:14 | 51.28124 | 6.53670 | 7098 ft | 276 kts | 233° |
| 2026-05-07 14:14 | 51.26956 | 6.51237 | 6875 ft | 276 kts | 233° |
| 2026-05-07 14:14 | 51.25794 | 6.48808 | 6662 ft | 275 kts | 233° |
| 2026-05-07 14:15 | 51.24633 | 6.46382 | 6447 ft | 274 kts | 233° |
| 2026-05-07 14:15 | 51.23474 | 6.43971 | 6220 ft | 273 kts | 233° |
| 2026-05-07 14:15 | 51.22319 | 6.41572 | 6007 ft | 273 kts | 233° |
| 2026-05-07 14:15 | 51.21159 | 6.39176 | 5789 ft | 273 kts | 234° |
| 2026-05-07 14:16 | 51.20016 | 6.36820 | 5630 ft | 264 kts | 233° |
| 2026-05-07 14:16 | 51.18911 | 6.34539 | 5499 ft | 255 kts | 234° |
| 2026-05-07 14:16 | 51.17845 | 6.32336 | 5370 ft | 247 kts | 233° |
| 2026-05-07 14:16 | 51.16775 | 6.30245 | 5125 ft | 242 kts | 224° |
| 2026-05-07 14:17 | 51.15360 | 6.28829 | 4628 ft | 242 kts | 199° |
| 2026-05-07 14:17 | 51.13711 | 6.28491 | 4258 ft | 236 kts | 173° |
| 2026-05-07 14:17 | 51.12108 | 6.29073 | 4206 ft | 238 kts | 163° |
| 2026-05-07 14:17 | 51.10611 | 6.30165 | 4150 ft | 238 kts | 140° |
| 2026-05-07 14:18 | 51.09604 | 6.32193 | 4047 ft | 234 kts | 111° |
| 2026-05-07 14:18 | 51.09306 | 6.34689 | 3919 ft | 230 kts | 84° |
| 2026-05-07 14:18 | 51.09742 | 6.37101 | 3792 ft | 227 kts | 58° |
| 2026-05-07 14:18 | 51.10663 | 6.39132 | 3656 ft | 226 kts | 51° |
| 2026-05-07 14:19 | 51.11625 | 6.41112 | 3531 ft | 226 kts | 49° |
| 2026-05-07 14:19 | 51.12650 | 6.43012 | 3401 ft | 226 kts | 42° |
| 2026-05-07 14:19 | 51.13794 | 6.44717 | 3270 ft | 225 kts | 45° |
| 2026-05-07 14:19 | 51.14800 | 6.46598 | 3147 ft | 219 kts | 50° |
| 2026-05-07 14:20 | 51.15409 | 6.47847 | 3088 ft | 212 kts | 51° |
| 2026-05-07 14:20 | 51.16292 | 6.49682 | 3004 ft | 205 kts | 51° |
| 2026-05-07 14:20 | 51.17158 | 6.51483 | 3012 ft | 203 kts | 51° |
| 2026-05-07 14:20 | 51.18016 | 6.53264 | 3007 ft | 197 kts | 51° |
| 2026-05-07 14:21 | 51.18824 | 6.54945 | 3044 ft | 187 kts | 51° |
| 2026-05-07 14:21 | 51.19610 | 6.56579 | 2955 ft | 183 kts | 51° |
| 2026-05-07 14:21 | 51.20365 | 6.58152 | 2771 ft | 175 kts | 50° |
| 2026-05-07 14:21 | 51.21097 | 6.59677 | 2561 ft | 171 kts | 50° |
| 2026-05-07 14:22 | 51.22067 | 6.61696 | 2253 ft | 170 kts | 51° |
| 2026-05-07 14:22 | 51.22531 | 6.62665 | 2100 ft | 164 kts | 51° |
| 2026-05-07 14:22 | 51.23218 | 6.64100 | 1889 ft | 161 kts | 50° |
| 2026-05-07 14:22 | 51.23864 | 6.65449 | 1674 ft | 142 kts | 51° |
| 2026-05-07 14:23 | 51.24433 | 6.66637 | 1489 ft | 131 kts | 51° |
| 2026-05-07 14:23 | 51.24974 | 6.67766 | 1313 ft | 126 kts | 49° |
| 2026-05-07 14:23 | 51.25501 | 6.68867 | 1157 ft | 124 kts | 49° |
| 2026-05-07 14:23 | 51.26020 | 6.69953 | 986 ft | 123 kts | 49° |
| 2026-05-07 14:24 | 51.26539 | 6.71042 | 811 ft | 122 kts | 49° |
| 2026-05-07 14:24 | 51.27055 | 6.72105 | 643 ft | 123 kts | 50° |
| 2026-05-07 14:24 | 51.27574 | 6.73187 | 493 ft | 121 kts | 50° |
| 2026-05-07 14:24 | 51.28093 | 6.74283 | 314 ft | 122 kts | 51° |
| 2026-05-07 14:25 | 51.28591 | 6.75336 | 156 ft | 119 kts | 51° |
| 2026-05-07 14:25 | 51.29031 | 6.76257 | 137 ft | 82 kts | 53° |
| 2026-05-07 14:25 | 51.29284 | 6.76799 | 134 ft | 52 kts | 53° |
| 2026-05-07 14:25 | 51.29500 | 6.77254 | 136 ft | 35 kts | 52° |
| 2026-05-07 14:26 | 51.29590 | 6.77614 | 136 ft | 35 kts | 90° |
| 2026-05-07 14:26 | 51.29529 | 6.77846 | 137 ft | 22 kts | 133° |
| 2026-05-07 14:26 | 51.29437 | 6.77973 | 138 ft | 16 kts | 142° |
| 2026-05-07 14:26 | 51.29343 | 6.78088 | 140 ft | 18 kts | 143° |
| 2026-05-07 14:27 | 51.29233 | 6.78217 | 138 ft | 22 kts | 147° |
| 2026-05-07 14:27 | 51.29121 | 6.78102 | 137 ft | 22 kts | 232° |
| 2026-05-07 14:27 | 51.29020 | 6.77890 | 137 ft | 26 kts | 233° |
| 2026-05-07 14:27 | 51.28903 | 6.77654 | 137 ft | 29 kts | 231° |
| 2026-05-07 14:28 | 51.28774 | 6.77387 | 137 ft | 32 kts | 234° |
| 2026-05-07 14:28 | 51.28638 | 6.77088 | 137 ft | 34 kts | 233° |
| 2026-05-07 14:28 | 51.28514 | 6.76831 | 137 ft | 17 kts | 233° |
| 2026-05-07 14:28 | 51.28437 | 6.76669 | 137 ft | 20 kts | 233° |
| 2026-05-07 14:29 | 51.28355 | 6.76499 | 137 ft | 15 kts | 229° |
| 2026-05-07 14:29 | 51.28288 | 6.76498 | 137 ft | 11 kts | 182° |
| 2026-05-07 14:29 | 51.28223 | 6.76436 | 137 ft | 11 kts | 194° |
| 2026-05-07 14:29 | 51.28142 | 6.76423 | 137 ft | 11 kts | 184° |
| 2026-05-07 14:30 | 51.28111 | 6.76501 | 137 ft | 6 kts | 96° |
| 2026-05-07 14:30 | 51.28109 | 6.76538 | 137 ft | 1 kts | 96° |
| 2026-05-07 14:30 | 51.28109 | 6.76541 | 137 ft | 0 kts | 96° |